createdAt,value
2022-09-04T00:00:10.750Z,99458.38
2022-09-04T00:03:02.716Z,99460.55
2022-09-04T00:05:41.225Z,99464.05
2022-09-04T00:08:50.125Z,99464.61
2022-09-04T00:11:45.815Z,99465.86
2022-09-04T00:14:20.318Z,99465.55
2022-09-04T00:17:06.053Z,99463.82
2022-09-04T00:19:44.480Z,99469.64
2022-09-04T00:22:30.132Z,99469.66
2022-09-04T00:25:25.627Z,99473.05
2022-09-04T00:28:11.554Z,99480.69
2022-09-04T00:30:54.316Z,99479.89
2022-09-04T00:34:11.999Z,99473.80
2022-09-04T00:36:50.998Z,99472.59
2022-09-04T00:39:50.386Z,99476.27
2022-09-04T00:43:03.987Z,99478.06
2022-09-04T00:45:46.151Z,99476.70
2022-09-04T00:48:50.028Z,99471.67
2022-09-04T00:51:45.769Z,99471.56
2022-09-04T00:54:42.647Z,99474.75
2022-09-04T00:57:16.260Z,99473.30
2022-09-04T01:00:05.980Z,99467.13
2022-09-04T01:02:54.990Z,99468.67
2022-09-04T01:05:50.374Z,99471.59
2022-09-04T01:08:44.332Z,99471.34
2022-09-04T01:11:40.107Z,99473.23
2022-09-04T01:14:15.542Z,99475.95
2022-09-04T01:17:14.893Z,99470.86
2022-09-04T01:20:06.912Z,99476.25
2022-09-04T01:23:04.623Z,99477.43
2022-09-04T01:26:02.322Z,99469.71
2022-09-04T01:28:55.138Z,99470.35
2022-09-04T01:32:05.589Z,99469.89
2022-09-04T01:34:49.838Z,99464.97
2022-09-04T01:37:47.632Z,99462.67
2022-09-04T01:40:25.806Z,99465.35
2022-09-04T01:43:21.101Z,99468.66
2022-09-04T01:46:01.431Z,99471.85
2022-09-04T01:48:55.797Z,99471.35
2022-09-04T01:51:46.314Z,99468.11
2022-09-04T01:54:32.399Z,99469.32
2022-09-04T01:57:16.336Z,99472.59
2022-09-04T02:00:00.805Z,99475.55
2022-09-04T02:02:59.277Z,99476.60
2022-09-04T02:06:11.073Z,99480.64
2022-09-04T02:09:13.690Z,99481.40
2022-09-04T02:11:56.979Z,99480.30
2022-09-04T02:15:00.891Z,99484.91
2022-09-04T02:17:45.957Z,99483.48
2022-09-04T02:20:24.244Z,99485.44
2022-09-04T02:23:18.946Z,99484.30
2022-09-04T02:26:17.798Z,99480.95
2022-09-04T02:29:33.246Z,99472.91
2022-09-04T02:32:20.153Z,99463.10
2022-09-04T02:35:14.171Z,99463.94
2022-09-04T02:37:45.684Z,99468.48
2022-09-04T02:40:39.796Z,99470.48
2022-09-04T02:43:24.828Z,99464.08
2022-09-04T02:46:20.687Z,99461.90
2022-09-04T02:49:28.366Z,99469.80
2022-09-04T02:52:34.522Z,99473.54
2022-09-04T02:55:19.436Z,99468.92
2022-09-04T02:58:26.236Z,99464.43
2022-09-04T03:01:22.647Z,99465.81
2022-09-04T03:04:13.358Z,99464.34
2022-09-04T03:06:52.019Z,99464.27
2022-09-04T03:09:37.909Z,99468.59
2022-09-04T03:12:11.160Z,99470.27
2022-09-04T03:14:43.947Z,99460.05
2022-09-04T03:17:49.839Z,99460.12
2022-09-04T03:20:28.097Z,99451.42
2022-09-04T03:23:10.048Z,99454.31
2022-09-04T03:26:10.063Z,99451.27
2022-09-04T03:29:10.137Z,99450.27
2022-09-04T03:31:52.438Z,99451.37
2022-09-04T03:34:44.934Z,99456.65
2022-09-04T03:37:35.081Z,99457.88
2022-09-04T03:40:18.100Z,99459.98
2022-09-04T03:43:03.434Z,99458.71
2022-09-04T03:46:19.367Z,99457.08
2022-09-04T03:49:08.988Z,99460.45
2022-09-04T03:52:02.625Z,99465.69
2022-09-04T03:54:39.280Z,99462.98
2022-09-04T03:57:39.486Z,99466.41
2022-09-04T04:00:21.256Z,99472.83
2022-09-04T04:03:21.154Z,99473.63
2022-09-04T04:06:13.435Z,99473.71
2022-09-04T04:09:14.220Z,99478.41
2022-09-04T04:11:57.472Z,99481.06
2022-09-04T04:14:38.387Z,99476.83
2022-09-04T04:17:22.005Z,99477.16
2022-09-04T04:20:10.533Z,99475.44
2022-09-04T04:23:17.918Z,99476.81
2022-09-04T04:26:27.293Z,99478.19
2022-09-04T04:29:39.493Z,99483.59
2022-09-04T04:32:39.511Z,99487.97
2022-09-04T04:35:18.204Z,99489.70
2022-09-04T04:38:05.787Z,99486.02
2022-09-04T04:41:11.396Z,99489.34
2022-09-04T04:44:10.353Z,99492.45
2022-09-04T04:47:19.873Z,99491.53
2022-09-04T04:50:08.867Z,99490.05
2022-09-04T04:52:55.068Z,99488.02
2022-09-04T04:55:54.938Z,99492.83
2022-09-04T04:58:23.801Z,99493.94
2022-09-04T05:01:11.950Z,99498.23
2022-09-04T05:03:52.365Z,99496.16
2022-09-04T05:06:42.246Z,99495.91
2022-09-04T05:09:22.122Z,99497.09
2022-09-04T05:12:03.820Z,99501.70
2022-09-04T05:14:55.599Z,99503.52
2022-09-04T05:17:50.123Z,99510.18
2022-09-04T05:20:30.037Z,99515.73
2022-09-04T05:23:24.980Z,99515.10
2022-09-04T05:26:05.121Z,99517.55
2022-09-04T05:28:50.839Z,99517.19
2022-09-04T05:31:43.564Z,99517.15
2022-09-04T05:34:21.379Z,99519.33
2022-09-04T05:37:15.330Z,99517.48
2022-09-04T05:40:19.176Z,99522.59
2022-09-04T05:42:56.018Z,99527.46
2022-09-04T05:45:59.720Z,99530.79
2022-09-04T05:48:59.236Z,99534.46
2022-09-04T05:51:27.134Z,99537.21
2022-09-04T05:54:20.083Z,99534.63
2022-09-04T05:57:10.462Z,99537.91
2022-09-04T06:00:08.414Z,99534.98
2022-09-04T06:03:10.138Z,99536.34
2022-09-04T06:06:22.852Z,99537.55
2022-09-04T06:09:12.356Z,99540.09
2022-09-04T06:11:52.099Z,99534.42
2022-09-04T06:14:34.750Z,99532.82
2022-09-04T06:17:21.218Z,99534.58
2022-09-04T06:20:19.032Z,99539.55
2022-09-04T06:22:57.056Z,99543.80
2022-09-04T06:25:36.804Z,99544.05
2022-09-04T06:28:37.755Z,99544.30
2022-09-04T06:31:05.555Z,99547.23
2022-09-04T06:33:41.768Z,99550.05
2022-09-04T06:36:38.917Z,99549.84
2022-09-04T06:39:34.306Z,99553.00
2022-09-04T06:42:25.547Z,99556.66
2022-09-04T06:45:25.426Z,99559.81
2022-09-04T06:48:10.581Z,99568.59
2022-09-04T06:51:27.683Z,99568.91
2022-09-04T06:54:28.612Z,99570.61
2022-09-04T06:57:13.741Z,99570.73
2022-09-04T07:00:00.993Z,99564.69
2022-09-04T07:02:54.211Z,99565.05
2022-09-04T07:05:29.636Z,99569.30
2022-09-04T07:08:03.577Z,99573.56
2022-09-04T07:11:04.783Z,99577.72
2022-09-04T07:13:52.120Z,99579.11
2022-09-04T07:16:36.518Z,99577.55
2022-09-04T07:19:42.576Z,99578.98
2022-09-04T07:22:37.872Z,99578.56
2022-09-04T07:25:26.698Z,99583.70
2022-09-04T07:28:24.361Z,99582.52
2022-09-04T07:31:26.927Z,99579.24
2022-09-04T07:34:25.469Z,99582.72
2022-09-04T07:37:12.347Z,99587.06
2022-09-04T07:40:11.555Z,99584.89
2022-09-04T07:42:53.870Z,99584.16
2022-09-04T07:45:30.124Z,99581.98
2022-09-04T07:48:37.553Z,99581.34
2022-09-04T07:51:17.006Z,99580.10
2022-09-04T07:54:12.473Z,99577.44
2022-09-04T07:57:11.333Z,99579.77
2022-09-04T08:00:10.422Z,99577.11
2022-09-04T08:02:43.824Z,99577.31
2022-09-04T08:05:46.216Z,99578.98
2022-09-04T08:08:30.627Z,99578.83
2022-09-04T08:11:15.637Z,99580.44
2022-09-04T08:14:26.880Z,99580.25
2022-09-04T08:17:46.531Z,99584.59
2022-09-04T08:20:46.226Z,99583.48
2022-09-04T08:23:16.936Z,99582.33
2022-09-04T08:26:15.982Z,99584.52
2022-09-04T08:28:59.672Z,99584.10
2022-09-04T08:31:43.216Z,99584.65
2022-09-04T08:34:20.257Z,99580.64
2022-09-04T08:37:10.687Z,99582.02
2022-09-04T08:40:17.638Z,99585.32
2022-09-04T08:43:05.914Z,99578.38
2022-09-04T08:45:48.315Z,99580.84
2022-09-04T08:49:12.099Z,99577.40
2022-09-04T08:51:41.308Z,99581.66
2022-09-04T08:54:26.973Z,99581.23
2022-09-04T08:57:18.283Z,99580.80
2022-09-04T09:00:17.393Z,99578.67
2022-09-04T09:03:07.083Z,99578.88
2022-09-04T09:05:48.010Z,99581.66
2022-09-04T09:08:53.501Z,99579.75
2022-09-04T09:11:21.265Z,99583.98
2022-09-04T09:14:28.821Z,99583.42
2022-09-04T09:17:21.503Z,99582.93
2022-09-04T09:20:22.859Z,99582.85
2022-09-04T09:23:18.811Z,99582.06
2022-09-04T09:26:07.107Z,99581.80
2022-09-04T09:28:35.752Z,99583.08
2022-09-04T09:31:53.849Z,99580.33
2022-09-04T09:34:49.289Z,99582.95
2022-09-04T09:37:29.211Z,99586.89
2022-09-04T09:40:40.083Z,99584.21
2022-09-04T09:43:32.525Z,99594.30
2022-09-04T09:46:38.958Z,99588.96
2022-09-04T09:49:43.243Z,99591.81
2022-09-04T09:52:48.828Z,99583.95
2022-09-04T09:55:31.889Z,99589.72
2022-09-04T09:58:31.531Z,99595.37
2022-09-04T10:01:08.644Z,99588.96
2022-09-04T10:03:40.545Z,99588.89
2022-09-04T10:06:51.394Z,99586.08
2022-09-04T10:09:44.113Z,99585.75
2022-09-04T10:12:41.125Z,99583.48
2022-09-04T10:15:26.937Z,99587.73
2022-09-04T10:17:54.824Z,99589.94
2022-09-04T10:20:43.247Z,99591.48
2022-09-04T10:23:41.804Z,99591.08
2022-09-04T10:26:31.721Z,99591.90
2022-09-04T10:29:37.303Z,99597.21
2022-09-04T10:32:05.053Z,99593.33
2022-09-04T10:35:07.648Z,99595.04
2022-09-04T10:38:02.095Z,99594.59
2022-09-04T10:40:51.655Z,99595.47
2022-09-04T10:43:38.419Z,99594.45
2022-09-04T10:46:23.200Z,99587.77
2022-09-04T10:49:19.282Z,99586.84
2022-09-04T10:52:23.094Z,99584.66
2022-09-04T10:55:03.043Z,99584.63
2022-09-04T10:57:53.495Z,99584.67
2022-09-04T11:00:29.449Z,99581.61
2022-09-04T11:03:20.929Z,99579.38
2022-09-04T11:06:17.226Z,99573.66
2022-09-04T11:09:30.563Z,99575.72
2022-09-04T11:12:18.110Z,99577.63
2022-09-04T11:15:28.163Z,99576.27
2022-09-04T11:18:11.905Z,99577.78
2022-09-04T11:21:03.349Z,99577.60
2022-09-04T11:24:02.695Z,99576.49
2022-09-04T11:26:33.439Z,99574.75
2022-09-04T11:29:15.716Z,99580.53
2022-09-04T11:32:14.495Z,99578.55
2022-09-04T11:34:45.400Z,99581.48
2022-09-04T11:37:16.193Z,99576.66
2022-09-04T11:39:53.884Z,99579.07
2022-09-04T11:43:16.117Z,99577.92
2022-09-04T11:45:56.256Z,99577.91
2022-09-04T11:48:57.008Z,99577.84
2022-09-04T11:51:49.657Z,99571.14
2022-09-04T11:54:36.060Z,99573.59
2022-09-04T11:57:22.046Z,99571.81
2022-09-04T12:00:09.456Z,99570.71
2022-09-04T12:02:44.134Z,99571.97
2022-09-04T12:05:54.940Z,99572.35
2022-09-04T12:08:35.983Z,99573.73
2022-09-04T12:11:33.310Z,99569.84
2022-09-04T12:14:10.273Z,99562.95
2022-09-04T12:16:53.451Z,99557.59
2022-09-04T12:19:28.535Z,99555.75
2022-09-04T12:22:10.624Z,99555.62
2022-09-04T12:24:52.024Z,99554.83
2022-09-04T12:27:49.380Z,99552.34
2022-09-04T12:30:35.779Z,99541.19
2022-09-04T12:33:20.087Z,99538.52
2022-09-04T12:36:00.745Z,99544.02
2022-09-04T12:38:41.292Z,99541.45
2022-09-04T12:41:36.238Z,99541.28
2022-09-04T12:44:27.877Z,99537.10
2022-09-04T12:47:17.056Z,99539.56
2022-09-04T12:49:55.696Z,99538.16
2022-09-04T12:52:35.685Z,99536.02
2022-09-04T12:55:16.931Z,99538.05
2022-09-04T12:58:02.993Z,99542.25
2022-09-04T13:00:49.814Z,99542.57
2022-09-04T13:03:34.047Z,99538.99
2022-09-04T13:06:37.350Z,99541.21
2022-09-04T13:09:28.346Z,99541.48
2022-09-04T13:12:26.126Z,99541.42
2022-09-04T13:15:48.409Z,99543.86
2022-09-04T13:18:58.799Z,99543.20
2022-09-04T13:21:43.415Z,99542.83
2022-09-04T13:24:20.777Z,99545.84
2022-09-04T13:26:51.876Z,99547.16
2022-09-04T13:29:40.610Z,99545.77
2022-09-04T13:32:29.940Z,99546.99
2022-09-04T13:35:10.137Z,99546.05
2022-09-04T13:37:56.704Z,99545.27
2022-09-04T13:40:55.284Z,99542.17
2022-09-04T13:43:42.203Z,99544.04
2022-09-04T13:46:17.174Z,99543.02
2022-09-04T13:48:47.619Z,99547.63
2022-09-04T13:51:25.258Z,99547.34
2022-09-04T13:54:11.657Z,99554.10
2022-09-04T13:56:42.321Z,99554.16
2022-09-04T13:59:17.733Z,99553.10
2022-09-04T14:01:50.395Z,99548.11
2022-09-04T14:04:28.152Z,99548.94
2022-09-04T14:07:06.433Z,99553.18
2022-09-04T14:09:41.076Z,99553.61
2022-09-04T14:12:54.421Z,99556.07
2022-09-04T14:15:52.060Z,99559.22
2022-09-04T14:19:14.980Z,99563.17
2022-09-04T14:22:08.776Z,99565.23
2022-09-04T14:24:42.798Z,99563.82
2022-09-04T14:27:29.934Z,99559.23
2022-09-04T14:30:13.639Z,99558.77
2022-09-04T14:33:05.036Z,99553.89
2022-09-04T14:36:07.638Z,99562.00
2022-09-04T14:39:06.808Z,99564.19
2022-09-04T14:41:36.389Z,99564.19
2022-09-04T14:44:18.688Z,99560.66
2022-09-04T14:47:09.757Z,99556.50
2022-09-04T14:49:50.676Z,99555.05
2022-09-04T14:52:23.991Z,99556.95
2022-09-04T14:54:55.212Z,99563.27
2022-09-04T14:57:36.423Z,99568.22
2022-09-04T15:00:21.169Z,99574.67
2022-09-04T15:03:17.377Z,99578.25
2022-09-04T15:05:56.151Z,99578.02
2022-09-04T15:08:36.761Z,99571.55
2022-09-04T15:11:34.984Z,99568.86
2022-09-04T15:14:24.717Z,99577.14
2022-09-04T15:17:00.456Z,99578.46
2022-09-04T15:19:51.952Z,99579.10
2022-09-04T15:22:29.751Z,99575.83
2022-09-04T15:25:00.718Z,99578.62
2022-09-04T15:27:35.211Z,99576.84
2022-09-04T15:30:17.622Z,99578.30
2022-09-04T15:32:47.511Z,99582.27
2022-09-04T15:35:33.294Z,99582.25
2022-09-04T15:38:21.361Z,99582.09
2022-09-04T15:41:15.690Z,99582.25
2022-09-04T15:43:50.807Z,99579.96
2022-09-04T15:46:43.637Z,99580.73
2022-09-04T15:49:29.213Z,99584.11
2022-09-04T15:52:15.959Z,99587.15
2022-09-04T15:54:46.654Z,99587.84
2022-09-04T15:57:50.294Z,99588.04
2022-09-04T16:00:24.550Z,99589.46
2022-09-04T16:03:22.443Z,99591.42
2022-09-04T16:06:16.535Z,99587.26
2022-09-04T16:08:52.615Z,99588.84
2022-09-04T16:11:27.695Z,99591.54
2022-09-04T16:14:03.777Z,99592.08
2022-09-04T16:16:49.772Z,99589.67
2022-09-04T16:19:24.392Z,99592.44
2022-09-04T16:21:55.126Z,99589.33
2022-09-04T16:24:35.937Z,99588.96
2022-09-04T16:27:09.189Z,99590.45
2022-09-04T16:29:40.025Z,99591.92
2022-09-04T16:32:11.054Z,99595.21
2022-09-04T16:34:53.369Z,99595.97
2022-09-04T16:37:32.903Z,99604.12
2022-09-04T16:40:21.067Z,99599.48
2022-09-04T16:43:00.386Z,99596.12
2022-09-04T16:45:39.757Z,99598.86
2022-09-04T16:48:34.789Z,99597.58
2022-09-04T16:51:39.097Z,99600.15
2022-09-04T16:54:13.667Z,99605.64
2022-09-04T16:57:12.093Z,99604.38
2022-09-04T16:59:55.993Z,99602.58
2022-09-04T17:02:49.210Z,99605.49
2022-09-04T17:05:41.624Z,99604.80
2022-09-04T17:08:25.636Z,99604.77
2022-09-04T17:11:04.539Z,99610.58
2022-09-04T17:13:56.187Z,99615.65
2022-09-04T17:16:40.517Z,99622.77
2022-09-04T17:19:14.106Z,99624.77
2022-09-04T17:28:04.915Z,99628.08
2022-09-04T17:29:13.595Z,99634.52
2022-09-04T17:29:22.449Z,99636.11
2022-09-04T17:31:51.440Z,99639.67
2022-09-04T17:40:10.328Z,99641.73
2022-09-04T17:40:53.994Z,99643.02
2022-09-04T17:41:32.357Z,99650.76
2022-09-04T17:44:02.375Z,99656.02
2022-09-04T17:46:45.554Z,99663.47
2022-09-04T17:49:20.974Z,99661.48
2022-09-04T17:52:01.664Z,99664.88
2022-09-04T17:54:33.109Z,99670.83
2022-09-04T17:57:38.279Z,99673.80
2022-09-04T18:00:12.055Z,99676.27
2022-09-04T18:02:56.657Z,99680.60
2022-09-04T18:05:32.339Z,99684.49
2022-09-04T18:08:30.058Z,99685.08
2022-09-04T18:11:13.223Z,99684.25
2022-09-04T18:13:52.524Z,99687.19
2022-09-04T18:16:35.782Z,99689.17
2022-09-04T18:19:22.524Z,99689.30
2022-09-04T18:22:25.722Z,99690.16
2022-09-04T18:25:16.760Z,99691.13
2022-09-04T18:28:06.523Z,99695.42
2022-09-04T18:36:45.456Z,99698.54
2022-09-04T18:37:18.590Z,99701.77
2022-09-04T18:37:44.141Z,99700.87
2022-09-04T18:40:12.940Z,99708.67
2022-09-04T18:50:38.906Z,99713.52
2022-09-04T18:50:40.540Z,99710.91
2022-09-04T18:50:53.512Z,99718.14
2022-09-04T18:51:58.525Z,99717.33
2022-09-04T18:54:40.578Z,99726.23
2022-09-04T18:57:35.469Z,99724.55
2022-09-04T19:00:11.677Z,99728.30
2022-09-04T19:02:54.249Z,99731.12
2022-09-04T19:05:45.028Z,99735.13
2022-09-04T19:08:39.029Z,99739.14
2022-09-04T19:11:21.047Z,99739.73
2022-09-04T19:14:09.967Z,99741.88
2022-09-04T19:16:53.661Z,99741.87
2022-09-04T19:19:33.674Z,99740.55
2022-09-04T19:22:22.943Z,99740.35
2022-09-04T19:25:07.249Z,99738.13
2022-09-04T19:27:53.186Z,99738.11
2022-09-04T19:30:33.473Z,99738.04
2022-09-04T19:33:16.772Z,99740.56
2022-09-04T19:36:21.442Z,99744.83
2022-09-04T19:45:57.805Z,99745.89
2022-09-04T19:46:02.353Z,99744.41
2022-09-04T19:46:15.403Z,99748.65
2022-09-04T19:48:03.680Z,99745.67
2022-09-04T19:53:21.713Z,99749.70
2022-09-04T19:53:41.115Z,99750.30
2022-09-04T19:56:24.784Z,99751.79
2022-09-04T19:59:12.644Z,99754.71
2022-09-04T20:02:11.309Z,99757.59
2022-09-04T20:04:47.316Z,99761.61
2022-09-04T20:07:24.985Z,99766.63
2022-09-04T20:09:58.835Z,99764.94
2022-09-04T20:12:51.123Z,99767.65
2022-09-04T20:15:31.575Z,99770.22
2022-09-04T20:18:22.993Z,99768.90
2022-09-04T20:21:05.526Z,99772.11
2022-09-04T20:23:39.118Z,99771.44
2022-09-04T20:26:26.871Z,99772.22
2022-09-04T20:29:00.756Z,99773.73
2022-09-04T20:31:45.363Z,99776.17
2022-09-04T20:34:28.434Z,99776.01
2022-09-04T20:37:15.693Z,99775.65
2022-09-04T20:40:09.033Z,99778.56
2022-09-04T20:43:03.358Z,99778.71
2022-09-04T20:47:20.343Z,99782.65
2022-09-04T20:52:48.682Z,99787.30
2022-09-04T20:52:56.703Z,99791.63
2022-09-04T20:55:09.120Z,99789.27
2022-09-04T21:02:31.944Z,99789.92
2022-09-04T21:03:09.516Z,99789.70
2022-09-04T21:04:43.111Z,99790.68
2022-09-04T21:07:36.980Z,99796.39
2022-09-04T21:10:34.441Z,99796.92
2022-09-04T21:13:20.812Z,99806.95
2022-09-04T21:16:21.625Z,99810.01
2022-09-04T21:19:28.616Z,99809.27
2022-09-04T21:22:33.442Z,99809.61
2022-09-04T21:25:08.735Z,99816.56
2022-09-04T21:28:00.121Z,99816.65
2022-09-04T21:30:45.325Z,99812.45
2022-09-04T21:33:34.521Z,99811.48
2022-09-04T21:36:48.176Z,99810.08
2022-09-04T21:39:45.917Z,99817.04
2022-09-04T21:42:41.833Z,99819.02
2022-09-04T21:45:41.638Z,99823.14
2022-09-04T21:48:28.289Z,99824.33
2022-09-04T21:51:16.896Z,99821.94
2022-09-04T21:53:59.429Z,99819.29
2022-09-04T22:02:26.010Z,99817.78
2022-09-04T22:02:36.189Z,99826.42
2022-09-04T22:03:36.410Z,99829.80
2022-09-04T22:08:49.754Z,99827.26
2022-09-04T22:13:30.218Z,99827.62
2022-09-04T22:13:39.194Z,99827.12
2022-09-04T22:16:00.062Z,99829.20
2022-09-04T22:19:05.670Z,99825.85
2022-09-04T22:22:10.309Z,99830.07
2022-09-04T22:25:06.838Z,99834.41
2022-09-04T22:28:12.749Z,99834.65
2022-09-04T22:31:05.145Z,99834.93
2022-09-04T22:34:14.896Z,99834.91
2022-09-04T22:37:05.016Z,99840.64
2022-09-04T22:39:35.797Z,99839.94
2022-09-04T22:42:34.505Z,99838.98
2022-09-04T22:45:17.603Z,99838.79
2022-09-04T22:48:22.405Z,99837.60
2022-09-04T22:51:07.172Z,99840.29
2022-09-04T22:53:55.308Z,99841.60
2022-09-04T22:57:03.375Z,99839.27
2022-09-04T23:00:04.033Z,99838.52
2022-09-04T23:03:17.094Z,99837.33
2022-09-04T23:07:22.061Z,99842.58
2022-09-04T23:13:49.105Z,99848.40
2022-09-04T23:13:50.645Z,99846.11
2022-09-04T23:15:49.900Z,99849.86
2022-09-04T23:21:47.946Z,99847.13
2022-09-04T23:26:35.014Z,99847.05
2022-09-04T23:26:41.908Z,99852.48
2022-09-04T23:28:38.773Z,99851.96
2022-09-04T23:31:29.207Z,99851.48
2022-09-04T23:34:35.021Z,99855.58
2022-09-04T23:37:51.489Z,99860.30
2022-09-04T23:41:10.424Z,99861.45
2022-09-04T23:44:34.708Z,99861.81
2022-09-04T23:47:48.002Z,99860.96
2022-09-04T23:51:13.643Z,99858.50
2022-09-04T23:54:25.243Z,99858.98
2022-09-04T23:57:55.187Z,99857.73
